sensor_id;sensor_type;location;lat;lon;timestamp;P1;durP1;ratioP1;P2;durP2;ratioP2
33824;SDS011;20127;48.962;8.342;2023-07-20T00:00:57;3.08;;;2.55;;
33824;SDS011;20127;48.962;8.342;2023-07-20T00:04:00;3.20;;;2.30;;
33824;SDS011;20127;48.962;8.342;2023-07-20T00:07:03;4.20;;;2.47;;
33824;SDS011;20127;48.962;8.342;2023-07-20T00:10:05;4.25;;;2.45;;
33824;SDS011;20127;48.962;8.342;2023-07-20T00:13:08;6.43;;;1.92;;
33824;SDS011;20127;48.962;8.342;2023-07-20T00:16:09;6.88;;;2.70;;
33824;SDS011;20127;48.962;8.342;2023-07-20T00:19:12;2.38;;;2.00;;
33824;SDS011;20127;48.962;8.342;2023-07-20T00:22:14;3.15;;;2.08;;
33824;SDS011;20127;48.962;8.342;2023-07-20T00:25:16;2.53;;;2.28;;
33824;SDS011;20127;48.962;8.342;2023-07-20T00:28:18;6.53;;;2.75;;
33824;SDS011;20127;48.962;8.342;2023-07-20T00:31:20;4.95;;;2.50;;
33824;SDS011;20127;48.962;8.342;2023-07-20T00:34:23;2.67;;;2.47;;
33824;SDS011;20127;48.962;8.342;2023-07-20T00:37:25;5.97;;;2.97;;
33824;SDS011;20127;48.962;8.342;2023-07-20T00:40:27;3.10;;;2.33;;
33824;SDS011;20127;48.962;8.342;2023-07-20T00:43:29;3.13;;;2.22;;
33824;SDS011;20127;48.962;8.342;2023-07-20T00:46:31;5.00;;;2.10;;
33824;SDS011;20127;48.962;8.342;2023-07-20T00:49:34;3.58;;;3.10;;
33824;SDS011;20127;48.962;8.342;2023-07-20T00:52:36;4.03;;;2.83;;
33824;SDS011;20127;48.962;8.342;2023-07-20T00:55:40;4.40;;;2.42;;
33824;SDS011;20127;48.962;8.342;2023-07-20T00:58:41;5.22;;;2.90;;
33824;SDS011;20127;48.962;8.342;2023-07-20T01:01:43;4.90;;;2.97;;
33824;SDS011;20127;48.962;8.342;2023-07-20T01:04:46;6.82;;;2.70;;
33824;SDS011;20127;48.962;8.342;2023-07-20T01:07:51;2.88;;;2.22;;
33824;SDS011;20127;48.962;8.342;2023-07-20T01:10:57;4.75;;;2.50;;
33824;SDS011;20127;48.962;8.342;2023-07-20T01:17:06;5.70;;;2.92;;
33824;SDS011;20127;48.962;8.342;2023-07-20T01:20:10;4.32;;;2.50;;
33824;SDS011;20127;48.962;8.342;2023-07-20T01:23:38;5.77;;;2.27;;
33824;SDS011;20127;48.962;8.342;2023-07-20T01:27:00;6.78;;;2.88;;
33824;SDS011;20127;48.962;8.342;2023-07-20T01:30:30;7.40;;;2.60;;
33824;SDS011;20127;48.962;8.342;2023-07-20T01:33:48;7.68;;;3.35;;
33824;SDS011;20127;48.962;8.342;2023-07-20T01:36:52;3.53;;;2.30;;
33824;SDS011;20127;48.962;8.342;2023-07-20T01:39:54;3.72;;;3.05;;
33824;SDS011;20127;48.962;8.342;2023-07-20T01:42:57;4.50;;;2.63;;
33824;SDS011;20127;48.962;8.342;2023-07-20T01:45:58;4.20;;;2.58;;
33824;SDS011;20127;48.962;8.342;2023-07-20T01:49:02;4.93;;;2.08;;
33824;SDS011;20127;48.962;8.342;2023-07-20T01:52:04;4.97;;;2.47;;
33824;SDS011;20127;48.962;8.342;2023-07-20T01:55:06;7.65;;;3.08;;
33824;SDS011;20127;48.962;8.342;2023-07-20T01:58:08;7.28;;;3.15;;
33824;SDS011;20127;48.962;8.342;2023-07-20T02:01:10;4.78;;;3.28;;
33824;SDS011;20127;48.962;8.342;2023-07-20T02:04:13;4.57;;;3.10;;
33824;SDS011;20127;48.962;8.342;2023-07-20T02:07:15;6.15;;;3.15;;
33824;SDS011;20127;48.962;8.342;2023-07-20T02:10:16;6.18;;;3.08;;
33824;SDS011;20127;48.962;8.342;2023-07-20T02:13:18;3.83;;;2.97;;
33824;SDS011;20127;48.962;8.342;2023-07-20T02:16:20;6.18;;;2.70;;
33824;SDS011;20127;48.962;8.342;2023-07-20T02:19:24;4.78;;;3.40;;
33824;SDS011;20127;48.962;8.342;2023-07-20T02:22:26;4.45;;;2.75;;
33824;SDS011;20127;48.962;8.342;2023-07-20T02:25:27;4.45;;;3.40;;
33824;SDS011;20127;48.962;8.342;2023-07-20T02:28:29;5.68;;;3.03;;
33824;SDS011;20127;48.962;8.342;2023-07-20T02:31:31;3.10;;;2.80;;
33824;SDS011;20127;48.962;8.342;2023-07-20T02:34:34;5.93;;;3.38;;
33824;SDS011;20127;48.962;8.342;2023-07-20T02:37:36;4.95;;;3.42;;
33824;SDS011;20127;48.962;8.342;2023-07-20T02:40:37;7.22;;;2.75;;
33824;SDS011;20127;48.962;8.342;2023-07-20T02:43:39;6.88;;;3.45;;
33824;SDS011;20127;48.962;8.342;2023-07-20T02:46:41;5.45;;;3.70;;
33824;SDS011;20127;48.962;8.342;2023-07-20T02:49:44;6.68;;;3.95;;
33824;SDS011;20127;48.962;8.342;2023-07-20T02:52:45;4.95;;;3.53;;
33824;SDS011;20127;48.962;8.342;2023-07-20T02:55:47;7.40;;;3.00;;
33824;SDS011;20127;48.962;8.342;2023-07-20T02:58:49;6.53;;;3.90;;
33824;SDS011;20127;48.962;8.342;2023-07-20T03:01:51;5.80;;;4.07;;
33824;SDS011;20127;48.962;8.342;2023-07-20T03:04:55;4.22;;;3.13;;
33824;SDS011;20127;48.962;8.342;2023-07-20T03:07:57;3.88;;;3.40;;
33824;SDS011;20127;48.962;8.342;2023-07-20T03:11:03;4.18;;;3.42;;
33824;SDS011;20127;48.962;8.342;2023-07-20T03:14:04;6.30;;;3.47;;
33824;SDS011;20127;48.962;8.342;2023-07-20T03:17:06;7.80;;;3.50;;
33824;SDS011;20127;48.962;8.342;2023-07-20T03:20:10;4.82;;;3.22;;
33824;SDS011;20127;48.962;8.342;2023-07-20T03:23:12;5.10;;;3.13;;
33824;SDS011;20127;48.962;8.342;2023-07-20T03:26:15;5.78;;;3.50;;
33824;SDS011;20127;48.962;8.342;2023-07-20T03:29:16;6.78;;;2.95;;
33824;SDS011;20127;48.962;8.342;2023-07-20T03:32:18;14.18;;;3.40;;
33824;SDS011;20127;48.962;8.342;2023-07-20T03:35:21;5.60;;;3.40;;
33824;SDS011;20127;48.962;8.342;2023-07-20T03:38:23;5.13;;;3.05;;
33824;SDS011;20127;48.962;8.342;2023-07-20T03:41:25;5.72;;;3.50;;
33824;SDS011;20127;48.962;8.342;2023-07-20T03:44:27;11.40;;;4.68;;
33824;SDS011;20127;48.962;8.342;2023-07-20T03:47:29;3.42;;;3.13;;
33824;SDS011;20127;48.962;8.342;2023-07-20T03:50:32;3.72;;;2.80;;
33824;SDS011;20127;48.962;8.342;2023-07-20T03:53:34;4.55;;;4.03;;
33824;SDS011;20127;48.962;8.342;2023-07-20T03:56:35;6.38;;;3.50;;
33824;SDS011;20127;48.962;8.342;2023-07-20T03:59:37;6.03;;;4.50;;
33824;SDS011;20127;48.962;8.342;2023-07-20T04:02:41;6.72;;;3.78;;
33824;SDS011;20127;48.962;8.342;2023-07-20T04:05:44;4.20;;;3.80;;
33824;SDS011;20127;48.962;8.342;2023-07-20T04:08:46;4.78;;;4.03;;
33824;SDS011;20127;48.962;8.342;2023-07-20T04:11:48;3.28;;;2.97;;
33824;SDS011;20127;48.962;8.342;2023-07-20T04:14:49;4.78;;;3.03;;
33824;SDS011;20127;48.962;8.342;2023-07-20T04:17:51;8.32;;;3.78;;
33824;SDS011;20127;48.962;8.342;2023-07-20T04:20:54;3.05;;;2.80;;
33824;SDS011;20127;48.962;8.342;2023-07-20T04:23:56;6.18;;;3.40;;
33824;SDS011;20127;48.962;8.342;2023-07-20T04:26:58;3.33;;;3.03;;
33824;SDS011;20127;48.962;8.342;2023-07-20T04:30:00;4.07;;;2.80;;
33824;SDS011;20127;48.962;8.342;2023-07-20T04:33:02;3.67;;;3.38;;
33824;SDS011;20127;48.962;8.342;2023-07-20T04:36:05;3.95;;;2.85;;
33824;SDS011;20127;48.962;8.342;2023-07-20T04:39:09;4.55;;;3.65;;
33824;SDS011;20127;48.962;8.342;2023-07-20T04:42:11;3.80;;;3.42;;
33824;SDS011;20127;48.962;8.342;2023-07-20T04:45:13;8.82;;;4.05;;
33824;SDS011;20127;48.962;8.342;2023-07-20T04:48:15;4.18;;;3.30;;
33824;SDS011;20127;48.962;8.342;2023-07-20T04:51:19;6.03;;;3.58;;
33824;SDS011;20127;48.962;8.342;2023-07-20T04:54:22;4.50;;;3.70;;
33824;SDS011;20127;48.962;8.342;2023-07-20T04:57:24;5.00;;;3.35;;
33824;SDS011;20127;48.962;8.342;2023-07-20T05:00:26;4.50;;;2.92;;
33824;SDS011;20127;48.962;8.342;2023-07-20T05:03:27;4.03;;;3.20;;
33824;SDS011;20127;48.962;8.342;2023-07-20T05:06:30;5.13;;;3.67;;
33824;SDS011;20127;48.962;8.342;2023-07-20T05:09:32;8.07;;;2.92;;
33824;SDS011;20127;48.962;8.342;2023-07-20T05:12:34;4.22;;;3.58;;
33824;SDS011;20127;48.962;8.342;2023-07-20T05:15:35;4.30;;;3.85;;
33824;SDS011;20127;48.962;8.342;2023-07-20T05:18:37;9.70;;;3.63;;
33824;SDS011;20127;48.962;8.342;2023-07-20T05:21:40;8.20;;;3.10;;
33824;SDS011;20127;48.962;8.342;2023-07-20T05:24:42;4.65;;;3.22;;
33824;SDS011;20127;48.962;8.342;2023-07-20T05:27:44;3.40;;;2.78;;
33824;SDS011;20127;48.962;8.342;2023-07-20T05:30:46;6.47;;;3.67;;
33824;SDS011;20127;48.962;8.342;2023-07-20T05:33:48;4.22;;;2.40;;
33824;SDS011;20127;48.962;8.342;2023-07-20T05:36:51;5.32;;;3.10;;
33824;SDS011;20127;48.962;8.342;2023-07-20T05:39:52;4.10;;;3.53;;
33824;SDS011;20127;48.962;8.342;2023-07-20T05:42:54;4.35;;;3.25;;
33824;SDS011;20127;48.962;8.342;2023-07-20T05:45:57;5.13;;;2.78;;
33824;SDS011;20127;48.962;8.342;2023-07-20T05:48:58;9.80;;;3.38;;
33824;SDS011;20127;48.962;8.342;2023-07-20T05:52:01;3.72;;;2.53;;
33824;SDS011;20127;48.962;8.342;2023-07-20T05:55:03;4.45;;;3.20;;
33824;SDS011;20127;48.962;8.342;2023-07-20T05:58:06;6.40;;;2.45;;
33824;SDS011;20127;48.962;8.342;2023-07-20T06:01:07;4.35;;;2.53;;
33824;SDS011;20127;48.962;8.342;2023-07-20T06:04:09;5.15;;;2.75;;
33824;SDS011;20127;48.962;8.342;2023-07-20T06:07:12;8.45;;;2.70;;
33824;SDS011;20127;48.962;8.342;2023-07-20T06:10:14;5.28;;;2.53;;
33824;SDS011;20127;48.962;8.342;2023-07-20T06:13:16;7.35;;;3.00;;
33824;SDS011;20127;48.962;8.342;2023-07-20T06:16:17;6.35;;;3.28;;
33824;SDS011;20127;48.962;8.342;2023-07-20T06:19:19;4.88;;;2.47;;
33824;SDS011;20127;48.962;8.342;2023-07-20T06:22:23;3.85;;;2.63;;
33824;SDS011;20127;48.962;8.342;2023-07-20T06:25:25;5.18;;;2.53;;
33824;SDS011;20127;48.962;8.342;2023-07-20T06:28:27;5.85;;;2.45;;
33824;SDS011;20127;48.962;8.342;2023-07-20T06:31:28;7.05;;;3.47;;
33824;SDS011;20127;48.962;8.342;2023-07-20T06:34:30;5.85;;;2.35;;
33824;SDS011;20127;48.962;8.342;2023-07-20T06:37:38;8.60;;;4.07;;
33824;SDS011;20127;48.962;8.342;2023-07-20T06:40:39;7.57;;;3.47;;
33824;SDS011;20127;48.962;8.342;2023-07-20T06:43:41;7.63;;;3.20;;
33824;SDS011;20127;48.962;8.342;2023-07-20T06:46:44;4.97;;;3.03;;
33824;SDS011;20127;48.962;8.342;2023-07-20T06:49:46;7.78;;;3.95;;
33824;SDS011;20127;48.962;8.342;2023-07-20T06:52:49;6.40;;;2.40;;
33824;SDS011;20127;48.962;8.342;2023-07-20T06:55:50;4.32;;;2.50;;
33824;SDS011;20127;48.962;8.342;2023-07-20T06:58:52;5.80;;;2.75;;
33824;SDS011;20127;48.962;8.342;2023-07-20T07:01:54;5.07;;;2.90;;
33824;SDS011;20127;48.962;8.342;2023-07-20T07:04:56;8.30;;;2.83;;
33824;SDS011;20127;48.962;8.342;2023-07-20T07:07:59;10.98;;;3.70;;
33824;SDS011;20127;48.962;8.342;2023-07-20T07:11:00;9.90;;;2.63;;
33824;SDS011;20127;48.962;8.342;2023-07-20T07:14:02;2.88;;;2.42;;
33824;SDS011;20127;48.962;8.342;2023-07-20T07:17:04;4.63;;;2.15;;
33824;SDS011;20127;48.962;8.342;2023-07-20T07:20:06;3.42;;;2.58;;
33824;SDS011;20127;48.962;8.342;2023-07-20T07:23:10;4.80;;;2.03;;
33824;SDS011;20127;48.962;8.342;2023-07-20T07:26:12;6.55;;;1.98;;
33824;SDS011;20127;48.962;8.342;2023-07-20T07:29:14;3.03;;;2.35;;
33824;SDS011;20127;48.962;8.342;2023-07-20T07:32:16;4.00;;;2.17;;
33824;SDS011;20127;48.962;8.342;2023-07-20T07:35:17;3.20;;;1.70;;
33824;SDS011;20127;48.962;8.342;2023-07-20T07:38:20;5.40;;;2.83;;
33824;SDS011;20127;48.962;8.342;2023-07-20T07:41:22;3.55;;;2.42;;
33824;SDS011;20127;48.962;8.342;2023-07-20T07:44:24;6.15;;;2.53;;
33824;SDS011;20127;48.962;8.342;2023-07-20T07:47:26;4.45;;;1.90;;
33824;SDS011;20127;48.962;8.342;2023-07-20T07:50:28;3.78;;;2.50;;
33824;SDS011;20127;48.962;8.342;2023-07-20T07:53:31;4.03;;;2.25;;
33824;SDS011;20127;48.962;8.342;2023-07-20T07:56:33;3.88;;;1.83;;
33824;SDS011;20127;48.962;8.342;2023-07-20T07:59:35;3.67;;;1.92;;
33824;SDS011;20127;48.962;8.342;2023-07-20T08:02:37;29.45;;;2.97;;
33824;SDS011;20127;48.962;8.342;2023-07-20T08:05:39;6.10;;;1.95;;
33824;SDS011;20127;48.962;8.342;2023-07-20T08:08:42;5.95;;;2.25;;
33824;SDS011;20127;48.962;8.342;2023-07-20T08:11:44;7.50;;;2.08;;
33824;SDS011;20127;48.962;8.342;2023-07-20T08:14:46;3.10;;;2.45;;
33824;SDS011;20127;48.962;8.342;2023-07-20T08:17:48;8.13;;;2.90;;
33824;SDS011;20127;48.962;8.342;2023-07-20T08:20:51;2.55;;;1.48;;
33824;SDS011;20127;48.962;8.342;2023-07-20T08:23:54;2.35;;;2.08;;
33824;SDS011;20127;48.962;8.342;2023-07-20T08:26:56;2.95;;;1.70;;
33824;SDS011;20127;48.962;8.342;2023-07-20T08:29:57;3.25;;;2.33;;
33824;SDS011;20127;48.962;8.342;2023-07-20T08:32:59;5.03;;;1.92;;
33824;SDS011;20127;48.962;8.342;2023-07-20T08:36:01;3.55;;;1.88;;
33824;SDS011;20127;48.962;8.342;2023-07-20T08:39:05;2.95;;;2.10;;
33824;SDS011;20127;48.962;8.342;2023-07-20T08:42:08;2.55;;;2.35;;
33824;SDS011;20127;48.962;8.342;2023-07-20T08:45:11;2.92;;;1.90;;
33824;SDS011;20127;48.962;8.342;2023-07-20T08:48:14;4.07;;;2.53;;
33824;SDS011;20127;48.962;8.342;2023-07-20T08:51:18;2.95;;;1.98;;
33824;SDS011;20127;48.962;8.342;2023-07-20T08:54:23;4.40;;;2.03;;
33824;SDS011;20127;48.962;8.342;2023-07-20T09:00:33;4.13;;;1.88;;
33824;SDS011;20127;48.962;8.342;2023-07-20T09:03:36;3.40;;;1.88;;
33824;SDS011;20127;48.962;8.342;2023-07-20T09:06:39;4.82;;;2.55;;
33824;SDS011;20127;48.962;8.342;2023-07-20T09:09:42;4.05;;;2.78;;
33824;SDS011;20127;48.962;8.342;2023-07-20T09:12:44;3.40;;;2.10;;
33824;SDS011;20127;48.962;8.342;2023-07-20T09:15:46;4.78;;;2.03;;
33824;SDS011;20127;48.962;8.342;2023-07-20T09:18:48;4.78;;;1.70;;
33824;SDS011;20127;48.962;8.342;2023-07-20T09:21:50;2.00;;;1.60;;
33824;SDS011;20127;48.962;8.342;2023-07-20T09:24:54;2.58;;;1.30;;
33824;SDS011;20127;48.962;8.342;2023-07-20T09:27:56;2.10;;;1.52;;
33824;SDS011;20127;48.962;8.342;2023-07-20T09:30:57;1.58;;;1.35;;
33824;SDS011;20127;48.962;8.342;2023-07-20T09:33:59;3.30;;;1.48;;
33824;SDS011;20127;48.962;8.342;2023-07-20T09:37:01;2.30;;;1.50;;
33824;SDS011;20127;48.962;8.342;2023-07-20T09:40:06;3.53;;;1.70;;
33824;SDS011;20127;48.962;8.342;2023-07-20T09:43:09;7.65;;;1.88;;
33824;SDS011;20127;48.962;8.342;2023-07-20T09:46:11;2.55;;;1.48;;
33824;SDS011;20127;48.962;8.342;2023-07-20T09:49:13;4.53;;;1.73;;
33824;SDS011;20127;48.962;8.342;2023-07-20T09:52:15;4.05;;;1.70;;
33824;SDS011;20127;48.962;8.342;2023-07-20T09:55:18;2.00;;;1.65;;
33824;SDS011;20127;48.962;8.342;2023-07-20T09:58:24;2.60;;;1.33;;
33824;SDS011;20127;48.962;8.342;2023-07-20T10:01:27;3.92;;;1.50;;
33824;SDS011;20127;48.962;8.342;2023-07-20T10:04:30;3.55;;;1.55;;
33824;SDS011;20127;48.962;8.342;2023-07-20T10:07:39;3.97;;;1.65;;
33824;SDS011;20127;48.962;8.342;2023-07-20T10:10:46;2.83;;;1.45;;
33824;SDS011;20127;48.962;8.342;2023-07-20T10:13:49;4.50;;;1.75;;
33824;SDS011;20127;48.962;8.342;2023-07-20T10:16:54;3.08;;;1.30;;
33824;SDS011;20127;48.962;8.342;2023-07-20T10:19:59;3.65;;;1.65;;
33824;SDS011;20127;48.962;8.342;2023-07-20T10:23:05;5.35;;;1.35;;
33824;SDS011;20127;48.962;8.342;2023-07-20T10:26:09;1.80;;;1.30;;
33824;SDS011;20127;48.962;8.342;2023-07-20T10:29:11;3.25;;;1.40;;
33824;SDS011;20127;48.962;8.342;2023-07-20T10:32:15;1.73;;;1.00;;
33824;SDS011;20127;48.962;8.342;2023-07-20T10:35:17;2.55;;;1.40;;
33824;SDS011;20127;48.962;8.342;2023-07-20T10:38:19;5.15;;;2.15;;
33824;SDS011;20127;48.962;8.342;2023-07-20T10:41:27;2.88;;;1.65;;
33824;SDS011;20127;48.962;8.342;2023-07-20T10:44:30;1.63;;;1.20;;
33824;SDS011;20127;48.962;8.342;2023-07-20T10:47:32;3.53;;;1.08;;
33824;SDS011;20127;48.962;8.342;2023-07-20T10:51:08;1.52;;;1.13;;
33824;SDS011;20127;48.962;8.342;2023-07-20T10:57:37;2.83;;;1.67;;
33824;SDS011;20127;48.962;8.342;2023-07-20T11:00:44;1.10;;;1.00;;
33824;SDS011;20127;48.962;8.342;2023-07-20T11:03:58;1.63;;;1.00;;
33824;SDS011;20127;48.962;8.342;2023-07-20T11:07:01;3.47;;;1.13;;
33824;SDS011;20127;48.962;8.342;2023-07-20T11:10:12;3.90;;;1.30;;
33824;SDS011;20127;48.962;8.342;2023-07-20T11:13:23;7.90;;;7.13;;
33824;SDS011;20127;48.962;8.342;2023-07-20T11:16:32;1.73;;;0.82;;
33824;SDS011;20127;48.962;8.342;2023-07-20T11:19:35;4.13;;;1.25;;
33824;SDS011;20127;48.962;8.342;2023-07-20T11:22:37;1.55;;;1.08;;
33824;SDS011;20127;48.962;8.342;2023-07-20T11:25:39;2.67;;;0.95;;
33824;SDS011;20127;48.962;8.342;2023-07-20T11:28:42;4.50;;;1.77;;
33824;SDS011;20127;48.962;8.342;2023-07-20T11:31:45;3.67;;;1.05;;
33824;SDS011;20127;48.962;8.342;2023-07-20T11:34:47;2.53;;;1.38;;
33824;SDS011;20127;48.962;8.342;2023-07-20T11:37:49;1.35;;;0.82;;
33824;SDS011;20127;48.962;8.342;2023-07-20T11:40:51;2.17;;;1.98;;
33824;SDS011;20127;48.962;8.342;2023-07-20T11:43:55;3.95;;;1.65;;
33824;SDS011;20127;48.962;8.342;2023-07-20T11:47:01;2.72;;;1.05;;
33824;SDS011;20127;48.962;8.342;2023-07-20T11:50:04;1.42;;;1.10;;
33824;SDS011;20127;48.962;8.342;2023-07-20T11:53:07;5.35;;;2.70;;
33824;SDS011;20127;48.962;8.342;2023-07-20T11:56:09;1.58;;;1.00;;
33824;SDS011;20127;48.962;8.342;2023-07-20T11:59:13;2.38;;;1.33;;
33824;SDS011;20127;48.962;8.342;2023-07-20T12:02:14;2.47;;;1.00;;
33824;SDS011;20127;48.962;8.342;2023-07-20T12:05:16;2.40;;;1.10;;
33824;SDS011;20127;48.962;8.342;2023-07-20T12:08:19;2.28;;;1.40;;
33824;SDS011;20127;48.962;8.342;2023-07-20T12:11:30;2.47;;;1.10;;
33824;SDS011;20127;48.962;8.342;2023-07-20T12:14:37;2.35;;;1.25;;
33824;SDS011;20127;48.962;8.342;2023-07-20T12:17:41;4.75;;;0.80;;
33824;SDS011;20127;48.962;8.342;2023-07-20T12:20:43;1.27;;;0.75;;
33824;SDS011;20127;48.962;8.342;2023-07-20T12:23:45;2.90;;;1.35;;
33824;SDS011;20127;48.962;8.342;2023-07-20T12:26:47;5.95;;;2.22;;
33824;SDS011;20127;48.962;8.342;2023-07-20T12:29:50;3.50;;;1.58;;
33824;SDS011;20127;48.962;8.342;2023-07-20T12:32:51;3.70;;;1.08;;
33824;SDS011;20127;48.962;8.342;2023-07-20T12:35:53;3.15;;;0.88;;
33824;SDS011;20127;48.962;8.342;2023-07-20T12:38:56;2.63;;;1.30;;
33824;SDS011;20127;48.962;8.342;2023-07-20T12:41:58;1.63;;;0.80;;
33824;SDS011;20127;48.962;8.342;2023-07-20T12:45:01;5.97;;;0.93;;
33824;SDS011;20127;48.962;8.342;2023-07-20T12:48:03;2.97;;;1.92;;
33824;SDS011;20127;48.962;8.342;2023-07-20T12:51:05;6.22;;;1.10;;
33824;SDS011;20127;48.962;8.342;2023-07-20T12:54:07;1.75;;;1.17;;
33824;SDS011;20127;48.962;8.342;2023-07-20T12:57:09;8.05;;;1.75;;
33824;SDS011;20127;48.962;8.342;2023-07-20T13:00:13;2.65;;;1.05;;
33824;SDS011;20127;48.962;8.342;2023-07-20T13:03:19;1.83;;;1.35;;
33824;SDS011;20127;48.962;8.342;2023-07-20T13:06:20;4.00;;;1.02;;
33824;SDS011;20127;48.962;8.342;2023-07-20T13:09:23;4.25;;;1.38;;
33824;SDS011;20127;48.962;8.342;2023-07-20T13:12:25;3.20;;;0.80;;
33824;SDS011;20127;48.962;8.342;2023-07-20T13:15:30;2.42;;;1.27;;
33824;SDS011;20127;48.962;8.342;2023-07-20T13:18:33;2.20;;;1.00;;
33824;SDS011;20127;48.962;8.342;2023-07-20T13:21:35;4.57;;;1.02;;
33824;SDS011;20127;48.962;8.342;2023-07-20T13:24:36;4.32;;;1.30;;
33824;SDS011;20127;48.962;8.342;2023-07-20T13:27:38;1.30;;;0.82;;
33824;SDS011;20127;48.962;8.342;2023-07-20T13:30:41;4.18;;;1.05;;
33824;SDS011;20127;48.962;8.342;2023-07-20T13:33:45;3.85;;;1.17;;
33824;SDS011;20127;48.962;8.342;2023-07-20T13:36:46;3.83;;;1.17;;
33824;SDS011;20127;48.962;8.342;2023-07-20T13:39:48;2.42;;;1.27;;
33824;SDS011;20127;48.962;8.342;2023-07-20T13:42:50;2.85;;;1.20;;
33824;SDS011;20127;48.962;8.342;2023-07-20T13:45:53;1.30;;;0.95;;
33824;SDS011;20127;48.962;8.342;2023-07-20T13:48:54;5.45;;;1.23;;
33824;SDS011;20127;48.962;8.342;2023-07-20T13:51:56;2.40;;;1.38;;
33824;SDS011;20127;48.962;8.342;2023-07-20T13:54:58;3.22;;;1.05;;
33824;SDS011;20127;48.962;8.342;2023-07-20T13:57:59;2.65;;;1.23;;
33824;SDS011;20127;48.962;8.342;2023-07-20T14:01:02;1.33;;;0.88;;
33824;SDS011;20127;48.962;8.342;2023-07-20T14:04:04;1.40;;;1.10;;
33824;SDS011;20127;48.962;8.342;2023-07-20T14:07:06;1.48;;;1.05;;
33824;SDS011;20127;48.962;8.342;2023-07-20T14:10:08;2.75;;;1.20;;
33824;SDS011;20127;48.962;8.342;2023-07-20T14:13:09;3.70;;;1.77;;
33824;SDS011;20127;48.962;8.342;2023-07-20T14:16:12;2.65;;;0.73;;
33824;SDS011;20127;48.962;8.342;2023-07-20T14:19:14;2.03;;;1.23;;
33824;SDS011;20127;48.962;8.342;2023-07-20T14:22:16;3.95;;;1.10;;
33824;SDS011;20127;48.962;8.342;2023-07-20T14:25:17;2.03;;;1.02;;
33824;SDS011;20127;48.962;8.342;2023-07-20T14:28:19;2.28;;;1.00;;
33824;SDS011;20127;48.962;8.342;2023-07-20T14:31:22;2.50;;;1.08;;
33824;SDS011;20127;48.962;8.342;2023-07-20T14:34:24;1.33;;;1.00;;
33824;SDS011;20127;48.962;8.342;2023-07-20T14:37:25;6.15;;;2.00;;
33824;SDS011;20127;48.962;8.342;2023-07-20T14:40:27;1.73;;;0.88;;
33824;SDS011;20127;48.962;8.342;2023-07-20T14:43:29;1.33;;;0.88;;
33824;SDS011;20127;48.962;8.342;2023-07-20T14:46:32;1.73;;;0.80;;
33824;SDS011;20127;48.962;8.342;2023-07-20T14:49:34;2.40;;;1.10;;
33824;SDS011;20127;48.962;8.342;2023-07-20T14:52:36;2.47;;;1.02;;
33824;SDS011;20127;48.962;8.342;2023-07-20T14:55:38;1.20;;;0.80;;
33824;SDS011;20127;48.962;8.342;2023-07-20T14:58:39;1.70;;;1.52;;
33824;SDS011;20127;48.962;8.342;2023-07-20T15:01:42;2.70;;;1.30;;
33824;SDS011;20127;48.962;8.342;2023-07-20T15:04:45;3.42;;;1.60;;
33824;SDS011;20127;48.962;8.342;2023-07-20T15:07:49;4.75;;;1.90;;
33824;SDS011;20127;48.962;8.342;2023-07-20T15:10:51;6.22;;;2.33;;
33824;SDS011;20127;48.962;8.342;2023-07-20T15:13:53;1.42;;;0.93;;
33824;SDS011;20127;48.962;8.342;2023-07-20T15:16:56;1.88;;;1.45;;
33824;SDS011;20127;48.962;8.342;2023-07-20T15:19:57;16.80;;;1.45;;
33824;SDS011;20127;48.962;8.342;2023-07-20T15:22:59;2.15;;;1.73;;
33824;SDS011;20127;48.962;8.342;2023-07-20T15:26:01;0.98;;;0.90;;
33824;SDS011;20127;48.962;8.342;2023-07-20T15:29:02;1.50;;;1.23;;
33824;SDS011;20127;48.962;8.342;2023-07-20T15:32:06;1.13;;;0.90;;
33824;SDS011;20127;48.962;8.342;2023-07-20T15:35:09;1.33;;;1.13;;
33824;SDS011;20127;48.962;8.342;2023-07-20T15:38:11;1.65;;;1.08;;
33824;SDS011;20127;48.962;8.342;2023-07-20T15:41:12;2.42;;;1.38;;
33824;SDS011;20127;48.962;8.342;2023-07-20T15:44:15;2.42;;;1.75;;
33824;SDS011;20127;48.962;8.342;2023-07-20T15:47:18;2.75;;;1.30;;
33824;SDS011;20127;48.962;8.342;2023-07-20T15:50:19;1.35;;;1.25;;
33824;SDS011;20127;48.962;8.342;2023-07-20T15:53:21;1.20;;;0.75;;
33824;SDS011;20127;48.962;8.342;2023-07-20T15:56:23;2.78;;;1.25;;
33824;SDS011;20127;48.962;8.342;2023-07-20T15:59:25;1.50;;;0.90;;
33824;SDS011;20127;48.962;8.342;2023-07-20T16:02:28;2.15;;;1.10;;
33824;SDS011;20127;48.962;8.342;2023-07-20T16:05:30;4.00;;;1.48;;
33824;SDS011;20127;48.962;8.342;2023-07-20T16:08:31;3.33;;;1.13;;
33824;SDS011;20127;48.962;8.342;2023-07-20T16:11:33;4.20;;;1.48;;
33824;SDS011;20127;48.962;8.342;2023-07-20T16:14:36;2.50;;;0.95;;
33824;SDS011;20127;48.962;8.342;2023-07-20T16:17:39;1.13;;;0.80;;
33824;SDS011;20127;48.962;8.342;2023-07-20T16:20:41;2.47;;;0.93;;
33824;SDS011;20127;48.962;8.342;2023-07-20T16:23:43;3.25;;;1.88;;
33824;SDS011;20127;48.962;8.342;2023-07-20T16:26:45;3.22;;;1.52;;
33824;SDS011;20127;48.962;8.342;2023-07-20T16:29:46;2.80;;;1.33;;
33824;SDS011;20127;48.962;8.342;2023-07-20T16:32:49;3.55;;;1.50;;
33824;SDS011;20127;48.962;8.342;2023-07-20T16:35:51;2.40;;;1.20;;
33824;SDS011;20127;48.962;8.342;2023-07-20T16:38:54;2.78;;;1.13;;
33824;SDS011;20127;48.962;8.342;2023-07-20T16:41:56;3.75;;;1.20;;
33824;SDS011;20127;48.962;8.342;2023-07-20T16:44:57;1.63;;;1.52;;
33824;SDS011;20127;48.962;8.342;2023-07-20T16:48:00;1.30;;;1.00;;
33824;SDS011;20127;48.962;8.342;2023-07-20T16:51:03;1.92;;;1.08;;
33824;SDS011;20127;48.962;8.342;2023-07-20T16:54:06;1.75;;;1.13;;
33824;SDS011;20127;48.962;8.342;2023-07-20T16:57:09;4.88;;;1.23;;
33824;SDS011;20127;48.962;8.342;2023-07-20T17:00:11;3.03;;;1.58;;
33824;SDS011;20127;48.962;8.342;2023-07-20T17:03:18;4.10;;;1.40;;
33824;SDS011;20127;48.962;8.342;2023-07-20T17:06:20;2.15;;;1.10;;
33824;SDS011;20127;48.962;8.342;2023-07-20T17:09:21;1.02;;;0.93;;
33824;SDS011;20127;48.962;8.342;2023-07-20T17:12:23;1.50;;;0.90;;
33824;SDS011;20127;48.962;8.342;2023-07-20T17:15:25;1.77;;;1.20;;
33824;SDS011;20127;48.962;8.342;2023-07-20T17:18:28;3.90;;;1.23;;
33824;SDS011;20127;48.962;8.342;2023-07-20T17:21:29;1.90;;;1.50;;
33824;SDS011;20127;48.962;8.342;2023-07-20T17:24:31;2.20;;;1.10;;
33824;SDS011;20127;48.962;8.342;2023-07-20T17:27:33;5.20;;;1.02;;
33824;SDS011;20127;48.962;8.342;2023-07-20T17:30:35;2.00;;;1.13;;
33824;SDS011;20127;48.962;8.342;2023-07-20T17:33:38;1.77;;;1.10;;
33824;SDS011;20127;48.962;8.342;2023-07-20T17:36:40;10.00;;;1.92;;
33824;SDS011;20127;48.962;8.342;2023-07-20T17:39:42;2.80;;;1.50;;
33824;SDS011;20127;48.962;8.342;2023-07-20T17:42:43;4.25;;;2.55;;
33824;SDS011;20127;48.962;8.342;2023-07-20T17:45:49;3.72;;;2.42;;
33824;SDS011;20127;48.962;8.342;2023-07-20T17:48:54;3.83;;;1.63;;
33824;SDS011;20127;48.962;8.342;2023-07-20T17:51:55;1.70;;;1.35;;
33824;SDS011;20127;48.962;8.342;2023-07-20T17:54:58;2.88;;;0.82;;
33824;SDS011;20127;48.962;8.342;2023-07-20T17:58:00;5.30;;;1.33;;
33824;SDS011;20127;48.962;8.342;2023-07-20T18:01:02;4.63;;;1.33;;
33824;SDS011;20127;48.962;8.342;2023-07-20T18:04:06;2.22;;;0.90;;
33824;SDS011;20127;48.962;8.342;2023-07-20T18:07:07;1.35;;;1.10;;
33824;SDS011;20127;48.962;8.342;2023-07-20T18:10:09;1.92;;;1.15;;
33824;SDS011;20127;48.962;8.342;2023-07-20T18:13:11;1.33;;;1.23;;
33824;SDS011;20127;48.962;8.342;2023-07-20T18:16:13;1.70;;;1.15;;
33824;SDS011;20127;48.962;8.342;2023-07-20T18:19:17;2.33;;;1.50;;
33824;SDS011;20127;48.962;8.342;2023-07-20T18:22:18;1.58;;;1.13;;
33824;SDS011;20127;48.962;8.342;2023-07-20T18:25:20;1.38;;;1.15;;
33824;SDS011;20127;48.962;8.342;2023-07-20T18:28:22;1.75;;;1.38;;
33824;SDS011;20127;48.962;8.342;2023-07-20T18:31:24;3.47;;;1.40;;